Time;durP1;ratioP1;P1;durP2;ratioP2;P2;SDS_P1;SDS_P2;PMS_P1;PMS_P2;Temp;Humidity;BMP_temperature;BMP_pressure;BME280_temperature;BME280_humidity;BME280_pressure;Samples;Min_cycle;Max_cycle;Signal;HPM_P1;HPM_P2
2021/05/29 00:00:15;;;;;;;2.90;1.73;;;;;;;18.53;62.00;98578.41;5042137;28;20249;-69
2021/05/29 00:02:42;;;;;;;2.40;1.70;;;;;;;18.50;61.78;98585.09;5050522;28;20232;-69
2021/05/29 00:05:09;;;;;;;1.93;1.40;;;;;;;18.55;62.08;98577.09;5048630;28;20203;-69
2021/05/29 00:07:36;;;;;;;4.03;1.80;;;;;;;18.55;62.46;98569.00;5047119;28;20582;-69
2021/05/29 00:10:04;;;;;;;2.57;1.70;;;;;;;18.69;61.59;98567.69;5049428;28;20283;-69
2021/05/29 00:12:31;;;;;;;1.73;1.50;;;;;;;18.55;60.90;98566.28;5058347;28;20259;-69
2021/05/29 00:14:59;;;;;;;2.77;1.90;;;;;;;18.65;61.16;98561.09;5045733;28;20682;-69
2021/05/29 00:17:25;;;;;;;2.80;1.60;;;;;;;18.40;62.58;98563.25;5048310;28;20689;-69
2021/05/29 00:19:52;;;;;;;2.83;1.53;;;;;;;18.38;63.47;98556.44;5050877;28;20212;-69
2021/05/29 00:22:19;;;;;;;3.63;2.07;;;;;;;18.35;63.37;98567.75;5046501;28;20723;-69
2021/05/29 00:24:46;;;;;;;5.40;2.00;;;;;;;18.50;62.73;98562.69;5046563;28;20205;-69
2021/05/29 00:27:13;;;;;;;4.10;1.70;;;;;;;18.68;61.04;98557.09;5051821;28;20212;-69
2021/05/29 00:29:40;;;;;;;3.50;1.80;;;;;;;18.68;60.58;98546.28;5048061;28;20212;-69
2021/05/29 00:32:08;;;;;;;1.83;1.57;;;;;;;18.31;62.21;98543.06;5044905;28;20264;-69
2021/05/29 00:34:34;;;;;;;3.23;1.57;;;;;;;18.41;63.14;98537.91;5047421;28;20224;-69
2021/05/29 00:37:01;;;;;;;3.03;1.80;;;;;;;18.57;63.35;98539.88;5049082;28;20209;-69
2021/05/29 00:39:28;;;;;;;2.50;1.47;;;;;;;18.56;63.54;98530.13;5045630;28;20610;-69
2021/05/29 00:41:55;;;;;;;2.03;1.70;;;;;;;18.28;64.89;98537.31;5042919;28;20246;-69
2021/05/29 00:44:22;;;;;;;3.23;1.67;;;;;;;17.86;65.92;98525.81;5049009;28;20212;-69
2021/05/29 00:46:48;;;;;;;2.30;1.53;;;;;;;18.02;66.48;98527.78;5049349;28;20210;-69
2021/05/29 00:49:16;;;;;;;1.70;1.60;;;;;;;18.45;62.98;98535.53;5041823;28;20573;-69
2021/05/29 00:51:43;;;;;;;3.53;1.80;;;;;;;18.49;61.94;98534.00;5044428;28;20233;-69
2021/05/29 00:54:11;;;;;;;2.10;1.60;;;;;;;18.50;61.61;98532.94;5040666;28;20235;-69
2021/05/29 00:56:38;;;;;;;2.73;1.60;;;;;;;17.97;63.75;98522.28;5042307;28;20672;-69
2021/05/29 00:59:06;;;;;;;2.10;1.60;;;;;;;18.40;63.37;98525.41;5044604;28;20205;-69
2021/05/29 01:01:33;;;;;;;3.27;1.40;;;;;;;18.37;63.20;98525.91;5049647;28;20316;-69
2021/05/29 01:03:59;;;;;;;1.43;1.33;;;;;;;18.25;63.67;98519.69;5049022;28;20208;-69
2021/05/29 01:06:27;;;;;;;3.63;1.67;;;;;;;18.13;65.00;98516.16;5045543;28;20209;-69
2021/05/29 01:08:54;;;;;;;3.40;1.40;;;;;;;18.28;64.10;98524.59;5042955;28;20211;-69
2021/05/29 01:11:20;;;;;;;2.27;1.57;;;;;;;17.98;63.35;98517.72;5044956;28;20241;-69
2021/05/29 01:13:47;;;;;;;2.30;1.50;;;;;;;18.19;64.23;98520.59;5056024;28;20869;-69
2021/05/29 01:16:21;;;;;;;3.33;1.80;;;;;;;18.09;64.74;98528.50;5046752;28;20567;-69
2021/05/29 01:18:48;;;;;;;4.60;1.50;;;;;;;18.21;64.50;98517.69;5049034;28;20218;-68
2021/05/29 01:21:15;;;;;;;1.47;1.37;;;;;;;17.87;67.31;98510.41;5048969;28;20211;-68
2021/05/29 01:23:42;;;;;;;5.40;1.70;;;;;;;18.01;66.89;98509.13;5048102;28;20240;-68
2021/05/29 01:26:09;;;;;;;3.97;1.97;;;;;;;18.11;65.29;98515.59;5049696;28;20546;-68
2021/05/29 01:28:36;;;;;;;1.97;1.50;;;;;;;17.99;65.86;98511.25;5043647;28;20264;-68
2021/05/29 01:31:07;;;;;;;2.53;1.30;;;;;;;18.16;64.98;98522.97;5039795;28;20206;-68
2021/05/29 01:33:35;;;;;;;4.40;1.73;;;;;;;18.25;64.87;98516.16;5040719;28;20303;-68
2021/05/29 01:36:04;;;;;;;2.87;1.70;;;;;;;18.12;66.05;98517.22;5042235;28;20222;-68
2021/05/29 01:38:31;;;;;;;2.63;2.10;;;;;;;18.14;66.32;98517.00;5050275;28;20238;-68
2021/05/29 01:41:01;;;;;;;2.47;1.60;;;;;;;18.02;65.67;98526.97;5041232;28;20340;-68
2021/05/29 01:43:28;;;;;;;2.50;1.60;;;;;;;17.69;68.20;98526.72;5045807;28;20686;-68
2021/05/29 01:45:55;;;;;;;2.17;1.50;;;;;;;17.83;67.26;98517.34;5045698;28;20205;-68
2021/05/29 01:48:33;;;;;;;3.27;2.33;;;;;;;17.96;66.38;98523.34;5043698;28;20667;-69
2021/05/29 01:51:00;;;;;;;3.13;1.60;;;;;;;18.09;64.78;98523.09;5049030;28;20260;-69
2021/05/29 01:53:28;;;;;;;1.40;1.27;;;;;;;17.88;65.37;98522.88;5045826;28;20278;-69
2021/05/29 01:55:55;;;;;;;2.07;1.40;;;;;;;17.91;65.71;98520.53;5044297;28;20297;-69
2021/05/29 01:58:22;;;;;;;2.80;1.43;;;;;;;18.02;65.84;98516.16;5046508;28;20202;-69
2021/05/29 02:00:49;;;;;;;2.67;1.60;;;;;;;17.77;67.35;98512.88;5043321;28;20208;-69
2021/05/29 02:03:17;;;;;;;2.30;1.40;;;;;;;18.10;66.13;98513.94;5049143;28;20663;-69
2021/05/29 02:05:44;;;;;;;2.13;1.30;;;;;;;17.75;67.11;98517.69;5049841;28;20202;-69
2021/05/29 02:08:12;;;;;;;1.47;1.30;;;;;;;17.87;66.75;98521.22;5043108;28;20206;-69
2021/05/29 02:10:41;;;;;;;2.00;1.53;;;;;;;17.82;67.02;98521.09;5048776;28;20211;-69
2021/05/29 02:13:10;;;;;;;2.90;1.60;;;;;;;17.90;66.92;98520.75;5050387;28;20379;-69
2021/05/29 02:15:39;;;;;;;2.60;2.00;;;;;;;17.57;68.89;98521.31;5046377;28;20240;-69
2021/05/29 02:18:09;;;;;;;3.20;1.60;;;;;;;17.81;68.65;98514.06;5048224;28;20572;-69
2021/05/29 02:20:42;;;;;;;2.50;1.80;;;;;;;17.88;68.04;98515.56;5045999;28;20211;-69
2021/05/29 02:23:10;;;;;;;3.37;1.77;;;;;;;17.99;66.97;98520.16;5046992;28;20224;-69
2021/05/29 02:25:37;;;;;;;3.20;1.50;;;;;;;17.49;68.86;98527.06;5045148;28;20401;-69
2021/05/29 02:28:04;;;;;;;3.60;1.40;;;;;;;17.70;69.05;98521.09;5048803;28;20208;-69
2021/05/29 02:30:32;;;;;;;2.83;1.70;;;;;;;17.57;69.64;98525.88;5041166;28;20202;-69
2021/05/29 02:33:00;;;;;;;2.80;1.77;;;;;;;17.53;69.75;98527.41;5047796;28;20232;-69
2021/05/29 02:35:27;;;;;;;2.57;1.43;;;;;;;17.46;69.90;98530.22;5036823;28;20759;-68
2021/05/29 02:37:53;;;;;;;2.30;1.37;;;;;;;17.33;70.43;98532.28;5045729;28;20294;-69
2021/05/29 02:40:20;;;;;;;2.43;1.70;;;;;;;17.40;70.38;98528.44;5035028;28;20569;-69
2021/05/29 02:42:47;;;;;;;2.30;1.57;;;;;;;17.24;70.31;98533.66;5045501;28;20235;-68
2021/05/29 02:45:14;;;;;;;2.50;1.70;;;;;;;16.72;74.80;98527.09;5038923;28;20689;-71
2021/05/29 02:47:41;;;;;;;2.43;1.40;;;;;;;16.97;74.62;98527.00;5044691;28;20203;-69
2021/05/29 02:50:10;;;;;;;3.47;1.80;;;;;;;17.26;73.32;98529.66;5044395;28;20203;-68
2021/05/29 02:52:38;;;;;;;3.13;1.87;;;;;;;17.04;73.12;98531.25;5049635;28;20580;-69
2021/05/29 02:55:06;;;;;;;3.57;1.80;;;;;;;16.95;73.32;98532.59;5046859;28;20238;-69
2021/05/29 02:57:33;;;;;;;2.17;1.70;;;;;;;16.76;74.05;98530.19;5044623;28;20273;-69
2021/05/29 03:00:00;;;;;;;2.47;1.70;;;;;;;16.71;74.64;98532.75;5046109;28;20210;-69
2021/05/29 03:02:27;;;;;;;4.03;2.00;;;;;;;16.38;76.57;98535.81;5046482;28;20236;-69
2021/05/29 03:04:53;;;;;;;2.53;1.80;;;;;;;16.42;76.97;98544.28;5045268;28;20201;-69
2021/05/29 03:07:21;;;;;;;3.70;1.80;;;;;;;16.30;77.79;98537.94;5041079;28;20241;-68
2021/05/29 03:09:48;;;;;;;3.67;1.83;;;;;;;16.30;78.31;98546.03;5048329;28;20284;-68
2021/05/29 03:12:15;;;;;;;3.27;2.03;;;;;;;16.29;78.22;98553.31;5040124;28;20663;-68
2021/05/29 03:14:42;;;;;;;2.70;1.73;;;;;;;16.51;77.39;98554.53;5048166;28;20229;-69
2021/05/29 03:17:09;;;;;;;3.83;2.40;;;;;;;16.04;79.58;98546.31;5040567;28;20313;-69
2021/05/29 03:19:35;;;;;;;3.37;2.00;;;;;;;16.63;76.41;98560.00;5049229;28;20292;-69
2021/05/29 03:22:03;;;;;;;3.63;1.93;;;;;;;16.60;75.93;98558.56;5039560;28;20234;-69
2021/05/29 03:24:30;;;;;;;2.03;1.73;;;;;;;16.75;75.35;98564.41;5048991;28;20284;-69
2021/05/29 03:26:57;;;;;;;2.27;1.60;;;;;;;16.59;76.15;98569.56;5043426;28;20211;-69
2021/05/29 03:29:24;;;;;;;2.90;1.80;;;;;;;16.60;76.62;98561.25;5049408;28;20565;-68
2021/05/29 03:31:51;;;;;;;3.77;1.63;;;;;;;16.51;76.41;98564.50;5047774;28;20286;-68
2021/05/29 03:34:18;;;;;;;3.27;2.40;;;;;;;16.50;76.61;98571.75;5046785;28;20297;-68
2021/05/29 03:36:44;;;;;;;2.97;2.20;;;;;;;16.57;76.73;98572.47;5043954;28;20758;-68
2021/05/29 03:39:11;;;;;;;3.13;2.20;;;;;;;16.84;75.30;98579.22;5048080;28;20206;-68
2021/05/29 03:41:39;;;;;;;3.60;2.50;;;;;;;16.70;76.11;98574.19;5041717;28;20242;-69
2021/05/29 03:44:06;;;;;;;5.00;2.40;;;;;;;16.98;76.12;98569.09;5038204;28;20204;-69
2021/05/29 03:46:32;;;;;;;5.97;2.50;;;;;;;16.68;76.34;98573.63;5038593;28;20205;-69
2021/05/29 03:48:59;;;;;;;4.03;2.20;;;;;;;17.05;74.87;98573.34;5047904;28;20210;-68
2021/05/29 03:51:26;;;;;;;5.37;2.67;;;;;;;17.10;74.43;98570.78;5040100;28;20287;-69
2021/05/29 03:53:53;;;;;;;3.60;2.40;;;;;;;17.08;74.19;98577.44;5044708;28;20663;-69
2021/05/29 03:56:20;;;;;;;4.80;2.60;;;;;;;17.21;73.38;98578.09;5049188;28;20552;-69
2021/05/29 03:58:47;;;;;;;3.33;2.50;;;;;;;17.38;72.02;98583.66;5047496;28;20269;-69
2021/05/29 04:01:14;;;;;;;3.47;2.70;;;;;;;17.46;71.44;98581.50;5046637;28;20203;-69
2021/05/29 04:03:41;;;;;;;3.13;2.43;;;;;;;17.50;71.32;98587.25;5043245;28;20579;-68
2021/05/29 04:06:08;;;;;;;2.13;1.93;;;;;;;17.52;71.40;98595.94;5047965;28;20210;-68
2021/05/29 04:08:35;;;;;;;6.40;2.20;;;;;;;17.64;71.66;98584.09;5047167;28;20213;-68
2021/05/29 04:11:02;;;;;;;5.93;2.50;;;;;;;17.68;71.98;98593.38;5044475;28;20209;-68
2021/05/29 04:13:28;;;;;;;3.80;2.80;;;;;;;17.51;71.81;98591.59;5045375;28;20237;-69
2021/05/29 04:15:56;;;;;;;2.90;2.27;;;;;;;17.62;71.45;98590.78;5038621;28;20231;-68
2021/05/29 04:18:23;;;;;;;7.60;2.53;;;;;;;17.74;70.42;98599.75;5041608;28;20215;-68
2021/05/29 04:20:50;;;;;;;5.37;2.10;;;;;;;17.68;70.96;98595.28;5039947;28;20288;-68
2021/05/29 04:23:17;;;;;;;3.43;2.57;;;;;;;17.73;70.56;98600.81;5044022;28;20228;-68
2021/05/29 04:25:44;;;;;;;3.83;2.73;;;;;;;17.78;69.19;98603.63;5046046;28;20597;-68
2021/05/29 04:28:12;;;;;;;3.53;2.70;;;;;;;17.69;69.92;98603.13;5047730;28;20204;-68
2021/05/29 04:30:39;;;;;;;3.77;2.67;;;;;;;17.74;69.04;98608.66;5038628;28;20205;-68
2021/05/29 04:33:07;;;;;;;5.27;2.67;;;;;;;17.67;69.15;98602.53;5043288;28;20676;-68
2021/05/29 04:35:34;;;;;;;3.53;2.60;;;;;;;17.46;69.60;98604.94;5043485;28;20235;-67
2021/05/29 04:38:00;;;;;;;4.47;2.60;;;;;;;17.81;67.07;98606.69;5051196;28;20308;-68
2021/05/29 04:40:27;;;;;;;2.93;2.40;;;;;;;18.10;65.72;98608.50;5054450;28;20210;-69
2021/05/29 04:42:59;;;;;;;3.37;2.20;;;;;;;18.42;63.63;98611.69;5054083;28;20254;-69
2021/05/29 04:45:26;;;;;;;5.27;2.40;;;;;;;17.59;68.14;98610.97;5052130;28;20195;-69
2021/05/29 04:47:53;;;;;;;5.77;2.20;;;;;;;18.06;66.38;98606.47;5048846;28;20682;-69
2021/05/29 04:50:22;;;;;;;3.87;2.50;;;;;;;17.91;64.05;98612.34;5046060;28;20243;-69
2021/05/29 04:52:48;;;;;;;3.50;2.73;;;;;;;18.21;62.90;98615.78;5053904;28;20255;-70
2021/05/29 04:55:16;;;;;;;4.30;2.57;;;;;;;18.81;61.06;98613.63;5045514;28;20808;-70
2021/05/29 04:57:43;;;;;;;5.30;2.40;;;;;;;17.40;67.11;98608.56;5044150;28;20723;-70
2021/05/29 05:00:13;;;;;;;4.27;2.43;;;;;;;17.81;66.40;98606.69;5052379;28;20233;-70
2021/05/29 05:02:40;;;;;;;4.40;2.57;;;;;;;18.74;60.35;98623.78;5062150;28;20217;-71
2021/05/29 05:05:08;;;;;;;3.27;2.40;;;;;;;18.49;61.33;98615.91;5053714;28;20196;-70
2021/05/29 05:07:36;;;;;;;3.63;2.37;;;;;;;18.51;61.48;98612.97;5045775;28;20639;-70
2021/05/29 05:10:04;;;;;;;4.07;2.47;;;;;;;18.35;63.83;98616.41;5053707;28;20204;-70
2021/05/29 05:12:31;;;;;;;3.60;2.30;;;;;;;18.92;60.01;98626.31;5052950;28;20317;-70
2021/05/29 05:14:58;;;;;;;2.67;2.20;;;;;;;19.37;57.73;98627.25;5053383;28;20640;-71
2021/05/29 05:17:25;;;;;;;8.60;2.40;;;;;;;19.22;59.02;98625.09;5054795;28;20202;-70
2021/05/29 05:19:52;;;;;;;2.37;2.03;;;;;;;19.71;56.29;98631.69;5053220;28;20215;-70
2021/05/29 05:22:18;;;;;;;2.60;2.10;;;;;;;19.97;56.00;98636.50;5050538;28;20225;-70
2021/05/29 05:24:46;;;;;;;3.57;2.37;;;;;;;18.61;59.60;98626.72;5053362;28;20196;-70
2021/05/29 05:27:13;;;;;;;4.43;2.40;;;;;;;19.87;53.64;98642.53;5053744;28;20204;-70
2021/05/29 05:29:40;;;;;;;4.00;2.50;;;;;;;20.18;52.82;98627.66;5052619;28;20217;-70
2021/05/29 05:32:08;;;;;;;2.00;1.67;;;;;;;20.07;52.41;98634.78;5061437;28;20720;-71
2021/05/29 05:34:35;;;;;;;3.27;2.20;;;;;;;20.33;53.20;98636.84;5044388;28;20388;-71
2021/05/29 05:37:02;;;;;;;3.17;2.47;;;;;;;19.43;56.84;98631.69;5053513;28;20289;-70
2021/05/29 05:39:28;;;;;;;3.63;1.80;;;;;;;19.01;57.53;98631.13;5053359;28;20200;-70
2021/05/29 05:41:56;;;;;;;3.80;2.40;;;;;;;19.32;55.31;98635.28;5052915;28;20648;-69
2021/05/29 05:44:23;;;;;;;2.97;2.20;;;;;;;19.29;54.71;98641.16;5052383;28;20214;-71
2021/05/29 05:46:50;;;;;;;2.63;2.10;;;;;;;20.17;51.25;98653.91;5037926;28;20573;-70
2021/05/29 05:49:17;;;;;;;3.87;2.00;;;;;;;19.18;55.75;98639.28;5045432;28;20222;-69
2021/05/29 05:51:43;;;;;;;1.90;1.70;;;;;;;20.10;51.96;98644.31;5051587;28;20222;-71
2021/05/29 05:54:10;;;;;;;3.20;1.77;;;;;;;20.78;47.99;98655.69;5050693;28;20212;-70
2021/05/29 05:56:37;;;;;;;4.57;2.10;;;;;;;19.09;52.64;98656.97;5045545;28;20234;-70
2021/05/29 05:59:05;;;;;;;2.20;1.70;;;;;;;20.43;49.29;98661.41;5052008;28;20731;-71
2021/05/29 06:01:31;;;;;;;4.77;1.97;;;;;;;20.46;51.22;98654.69;5049363;28;20223;-72
2021/05/29 06:03:58;;;;;;;2.27;1.90;;;;;;;20.03;49.81;98659.88;5046097;28;20210;-75
2021/05/29 06:06:25;;;;;;;2.50;1.90;;;;;;;20.39;49.35;98662.13;5044695;28;20555;-72
2021/05/29 06:08:52;;;;;;;2.77;1.90;;;;;;;20.04;49.47;98670.50;5052669;28;20209;-75
2021/05/29 06:11:19;;;;;;;2.20;1.83;;;;;;;20.19;49.48;98659.09;5050625;28;20243;-75
2021/05/29 06:19:18;;;;;;;3.60;1.77;;;;;;;21.11;44.67;98671.88;5052673;28;20215;-85
2021/05/29 06:21:47;;;;;;;4.33;2.13;;;;;;;20.95;46.09;98667.34;5044969;28;20226;-76
2021/05/29 06:24:15;;;;;;;3.43;1.70;;;;;;;21.10;46.54;98668.38;5045238;28;20236;-73
2021/05/29 06:26:42;;;;;;;3.70;1.90;;;;;;;21.08;47.43;98662.34;5034155;28;20202;-76
2021/05/29 06:29:09;;;;;;;2.10;1.70;;;;;;;20.43;47.85;98660.59;5032870;28;20214;-74
2021/05/29 06:31:37;;;;;;;3.80;1.80;;;;;;;21.07;46.89;98670.78;5049547;28;20729;-75
2021/05/29 06:34:04;;;;;;;2.93;1.57;;;;;;;21.00;46.87;98679.09;5052182;28;20300;-75
2021/05/29 06:36:31;;;;;;;2.40;1.80;;;;;;;20.01;46.46;98686.41;5050234;28;20316;-80
2021/05/29 06:38:59;;;;;;;1.40;1.30;;;;;;;20.02;45.88;98688.84;5063868;28;20665;-80
2021/05/29 06:41:25;;;;;;;3.47;1.70;;;;;;;19.95;47.86;98687.38;5054042;28;20229;-75
2021/05/29 06:43:53;;;;;;;2.63;1.40;;;;;;;19.29;49.39;98687.19;5040531;28;20221;-74
2021/05/29 06:46:20;;;;;;;3.33;1.77;;;;;;;20.04;47.25;98686.75;5046767;28;20198;-74
2021/05/29 06:48:48;;;;;;;2.20;1.80;;;;;;;21.40;44.35;98695.06;5057872;28;20250;-75
2021/05/29 06:51:18;;;;;;;2.87;1.70;;;;;;;21.48;43.75;98710.94;5052298;28;20208;-75
2021/05/29 06:53:48;;;;;;;2.40;1.80;;;;;;;20.82;46.06;98702.97;5034318;28;20562;-74
2021/05/29 06:59:01;;;;;;;2.27;1.60;;;;;;;20.35;46.78;98696.22;5051005;28;20209;-74
2021/05/29 07:01:29;;;;;;;4.77;1.60;;;;;;;20.23;47.31;98707.19;5056638;28;20233;-73
2021/05/29 07:03:58;;;;;;;3.87;1.60;;;;;;;20.59;46.73;98705.84;5054168;28;20671;-75
2021/05/29 07:06:25;;;;;;;2.40;1.70;;;;;;;20.35;47.51;98709.78;5045544;28;20252;-75
2021/05/29 07:08:55;;;;;;;2.43;1.70;;;;;;;21.94;42.29;98710.41;5046253;28;20200;-75
2021/05/29 07:11:22;;;;;;;3.57;1.50;;;;;;;21.66;41.97;98710.59;5052044;28;20712;-74
2021/05/29 07:13:48;;;;;;;3.73;1.70;;;;;;;21.39;41.52;98710.53;5051969;28;20205;-77
2021/05/29 07:16:16;;;;;;;2.73;1.37;;;;;;;22.20;39.74;98715.81;5053577;28;20226;-74
2021/05/29 07:18:46;;;;;;;2.47;1.40;;;;;;;22.28;39.62;98714.53;5042998;28;20202;-79
2021/05/29 07:21:15;;;;;;;1.93;1.43;;;;;;;21.71;41.55;98710.69;5044215;28;20206;-78
2021/05/29 07:23:42;;;;;;;3.07;1.57;;;;;;;22.28;39.47;98711.81;5044400;28;20206;-74
2021/05/29 07:26:09;;;;;;;1.57;1.20;;;;;;;21.54;39.88;98713.44;5041848;28;20192;-75
2021/05/29 07:28:42;;;;;;;3.80;1.50;;;;;;;21.51;40.06;98713.13;5048841;28;20211;-77
2021/05/29 07:31:09;;;;;;;2.83;1.30;;;;;;;22.32;38.58;98702.06;5048586;28;20230;-73
2021/05/29 07:33:37;;;;;;;3.87;1.60;;;;;;;22.15;37.26;98712.25;5050287;28;20301;-74
2021/05/29 07:36:05;;;;;;;3.20;1.60;;;;;;;22.52;37.23;98702.25;5051452;28;20340;-78
2021/05/29 07:38:33;;;;;;;1.23;1.13;;;;;;;21.18;38.93;98705.13;5051642;28;20206;-72
2021/05/29 07:41:00;;;;;;;1.73;1.30;;;;;;;22.18;37.12;98704.38;5045125;28;20226;-73
2021/05/29 07:43:27;;;;;;;5.17;1.60;;;;;;;22.18;36.87;98709.00;5050448;28;20280;-76
2021/05/29 07:45:53;;;;;;;2.53;1.50;;;;;;;21.81;36.15;98708.06;5040159;28;20207;-77
2021/05/29 07:48:20;;;;;;;1.20;1.10;;;;;;;22.54;36.51;98706.34;5050814;28;20574;-81
2021/05/29 07:51:00;;;;;;;4.07;1.80;;;;;;;21.81;38.05;98700.75;5053673;28;20248;-81
2021/05/29 07:53:29;;;;;;;2.67;1.43;;;;;;;21.62;39.48;98706.75;5041296;28;20302;-75
2021/05/29 07:55:57;;;;;;;2.30;1.63;;;;;;;21.09;39.91;98698.47;5043276;28;20223;-75
2021/05/29 07:58:24;;;;;;;3.50;1.80;;;;;;;21.32;38.34;98703.66;5043178;28;20221;-75
2021/05/29 08:00:51;;;;;;;1.40;1.30;;;;;;;22.03;37.75;98697.97;5043516;28;20202;-75
2021/05/29 08:03:19;;;;;;;2.40;1.40;;;;;;;21.54;39.76;98696.34;5044842;28;20227;-76
2021/05/29 08:05:47;;;;;;;3.53;1.30;;;;;;;21.79;39.33;98692.03;5041989;28;20549;-74
2021/05/29 08:08:14;;;;;;;5.37;1.57;;;;;;;22.72;37.09;98694.25;5044108;28;20209;-76
2021/05/29 08:10:41;;;;;;;2.53;1.20;;;;;;;22.63;36.80;98710.25;5043820;28;20214;-77
2021/05/29 08:13:09;;;;;;;2.43;1.20;;;;;;;23.15;34.75;98713.03;5046939;28;20225;-83
2021/05/29 08:15:36;;;;;;;1.30;1.20;;;;;;;22.19;35.07;98707.94;5047023;28;20344;-76
2021/05/29 08:18:03;;;;;;;2.47;1.33;;;;;;;22.58;35.11;98717.53;5052132;28;20840;-75
2021/05/29 08:20:30;;;;;;;3.73;1.60;;;;;;;22.11;37.11;98713.81;5036968;28;20287;-73
2021/05/29 08:22:56;;;;;;;1.53;1.17;;;;;;;21.88;35.63;98712.22;5038810;28;20225;-71
2021/05/29 08:25:23;;;;;;;1.83;1.07;;;;;;;22.87;34.84;98706.06;5039363;28;20568;-73
2021/05/29 08:27:50;;;;;;;1.60;1.30;;;;;;;22.83;36.31;98696.78;5042689;28;20299;-74
2021/05/29 08:30:18;;;;;;;2.77;1.43;;;;;;;23.42;34.87;98705.56;5043973;28;20295;-75
2021/05/29 08:32:45;;;;;;;2.17;1.40;;;;;;;23.31;33.31;98712.84;5047246;28;20283;-75
2021/05/29 08:35:12;;;;;;;2.20;1.20;;;;;;;23.73;34.10;98710.03;5045455;28;20275;-73
2021/05/29 08:37:41;;;;;;;2.23;1.27;;;;;;;23.48;32.89;98718.13;5041476;28;20210;-71
2021/05/29 08:40:09;;;;;;;1.47;1.00;;;;;;;22.79;32.68;98725.59;5040511;28;20210;-72
2021/05/29 08:42:36;;;;;;;2.30;1.20;;;;;;;23.41;32.29;98715.63;5049440;28;20671;-71
2021/05/29 08:45:05;;;;;;;2.00;1.13;;;;;;;22.94;33.29;98719.41;5044301;28;20206;-72
2021/05/29 08:47:32;;;;;;;1.87;1.00;;;;;;;23.59;30.75;98730.69;5040222;28;20255;-71
2021/05/29 08:49:59;;;;;;;1.20;1.00;;;;;;;22.48;32.63;98741.94;5047581;28;20278;-72
2021/05/29 08:52:26;;;;;;;1.73;1.20;;;;;;;21.80;33.61;98741.78;5040367;28;20222;-76
2021/05/29 08:54:55;;;;;;;2.10;1.20;;;;;;;22.44;32.30;98730.75;5048395;28;20235;-72
2021/05/29 08:57:22;;;;;;;2.33;1.20;;;;;;;22.97;30.91;98737.97;5046102;28;20216;-72
2021/05/29 08:59:49;;;;;;;1.63;1.20;;;;;;;22.13;33.66;98723.38;5043023;28;20204;-70
2021/05/29 09:02:16;;;;;;;2.13;1.20;;;;;;;23.99;30.96;98725.41;5041880;28;20710;-72
2021/05/29 09:05:06;;;;;;;2.90;1.43;;;;;;;23.80;31.30;98727.78;5049470;28;20226;-75
2021/05/29 09:07:33;;;;;;;4.10;1.20;;;;;;;23.35;31.78;98724.88;5037315;28;20713;-72
2021/05/29 09:10:17;;;;;;;1.57;1.47;;;;;;;23.25;31.39;98735.72;5043907;28;20214;-72
2021/05/29 09:13:05;;;;;;;1.20;1.10;;;;;;;23.50;30.22;98738.56;5050290;28;20225;-72
2021/05/29 09:15:50;;;;;;;1.93;1.30;;;;;;;23.38;31.29;98721.63;5046859;28;20311;-73
2021/05/29 09:18:38;;;;;;;1.63;1.10;;;;;;;23.43;31.29;98735.28;5039303;28;20228;-72
2021/05/29 09:21:30;;;;;;;1.97;1.20;;;;;;;22.04;34.40;98729.53;5041803;28;20287;-74
2021/05/29 09:23:59;;;;;;;2.97;1.33;;;;;;;22.45;33.30;98726.16;5046918;28;20216;-75
2021/05/29 09:26:42;;;;;;;2.10;1.30;;;;;;;23.11;32.38;98730.97;5050804;28;20289;-74
2021/05/29 09:29:16;;;;;;;1.93;1.27;;;;;;;22.70;33.38;98726.34;5039936;28;20594;-76
2021/05/29 09:31:58;;;;;;;1.80;1.40;;;;;;;23.60;31.93;98733.16;5041842;28;20240;-74
2021/05/29 09:34:32;;;;;;;3.10;1.27;;;;;;;24.08;30.19;98729.25;5046267;28;20214;-78
2021/05/29 09:37:05;;;;;;;1.93;1.30;;;;;;;23.87;31.05;98738.44;5045076;28;20785;-78
2021/05/29 09:39:32;;;;;;;2.33;1.27;;;;;;;24.39;30.37;98739.94;5045265;28;20198;-77
2021/05/29 09:42:00;;;;;;;2.73;1.30;;;;;;;24.99;29.98;98728.22;5039614;28;20236;-72
2021/05/29 09:44:31;;;;;;;1.50;1.00;;;;;;;25.34;30.58;98741.81;5041964;28;20202;-77
2021/05/29 09:47:00;;;;;;;1.43;1.20;;;;;;;25.24;29.66;98742.63;5043248;28;20245;-72
2021/05/29 09:49:41;;;;;;;1.40;1.23;;;;;;;23.53;30.28;98742.66;5042369;28;20265;-77
2021/05/29 09:52:31;;;;;;;1.67;1.20;;;;;;;24.17;30.13;98749.47;5042856;28;20310;-75
2021/05/29 09:55:01;;;;;;;2.30;1.40;;;;;;;23.98;30.19;98753.78;5050098;28;20296;-77
2021/05/29 09:57:28;;;;;;;1.50;1.10;;;;;;;25.14;29.25;98744.56;5049401;28;20206;-79
2021/05/29 10:00:07;;;;;;;2.10;1.20;;;;;;;24.44;29.95;98744.56;5044419;28;20206;-80
2021/05/29 10:02:34;;;;;;;1.40;1.07;;;;;;;25.55;29.74;98748.84;5040596;28;20724;-74
2021/05/29 10:05:01;;;;;;;3.00;1.40;;;;;;;25.00;30.28;98736.13;5048421;28;20204;-84
2021/05/29 10:07:41;;;;;;;1.83;1.20;;;;;;;24.16;31.36;98737.72;5040451;28;21558;-79
2021/05/29 10:10:10;;;;;;;5.57;1.40;;;;;;;24.04;31.52;98744.50;5043890;28;20219;-82
2021/05/29 10:12:37;;;;;;;1.83;1.30;;;;;;;23.13;33.40;98745.16;5050106;28;20634;-78
2021/05/29 10:15:05;;;;;;;5.60;1.50;;;;;;;22.97;33.20;98746.97;5045911;28;20268;-75
2021/05/29 10:17:32;;;;;;;2.77;1.70;;;;;;;22.68;33.40;98742.94;5055772;28;20213;-77
2021/05/29 10:19:59;;;;;;;4.20;1.33;;;;;;;23.39;32.85;98736.88;5046941;28;20693;-78
2021/05/29 10:22:28;;;;;;;1.50;1.30;;;;;;;23.64;32.67;98739.72;5045562;28;20286;-81
2021/05/29 10:24:56;;;;;;;2.47;1.30;;;;;;;24.21;32.29;98735.00;5050036;28;20248;-78
2021/05/29 10:27:24;;;;;;;3.67;1.50;;;;;;;23.11;32.40;98750.84;5047156;28;20202;-78
2021/05/29 10:29:52;;;;;;;3.20;1.20;;;;;;;22.96;33.64;98739.06;5053701;28;20620;-78
2021/05/29 10:32:20;;;;;;;3.43;1.60;;;;;;;24.13;31.18;98751.09;5045735;28;20219;-76
2021/05/29 10:35:08;;;;;;;1.63;1.23;;;;;;;24.74;28.51;98761.00;5049034;28;20258;-74
2021/05/29 10:37:37;;;;;;;1.77;1.17;;;;;;;24.75;28.77;98758.00;5040460;28;20210;-74
2021/05/29 10:40:35;;;;;;;1.80;1.40;;;;;;;23.15;30.97;98745.72;5049695;28;20201;-78
2021/05/29 10:43:16;;;;;;;1.53;1.00;;;;;;;24.46;29.17;98756.03;5041509;28;20283;-78
2021/05/29 10:46:05;;;;;;;1.33;1.10;;;;;;;22.97;29.81;98766.03;5041969;28;20202;-80
2021/05/29 10:48:47;;;;;;;2.03;1.07;;;;;;;22.72;29.86;98760.38;5050219;28;20205;-79
2021/05/29 10:51:13;;;;;;;1.33;0.90;;;;;;;23.12;29.45;98752.50;5042342;28;20203;-76
2021/05/29 10:53:45;;;;;;;2.20;1.00;;;;;;;24.05;28.82;98748.88;5043096;28;20580;-78
2021/05/29 10:56:31;;;;;;;1.10;1.00;;;;;;;25.23;28.41;98743.72;5038426;28;20237;-78
2021/05/29 10:59:10;;;;;;;1.07;0.90;;;;;;;25.63;26.04;98751.00;5043668;28;20221;-74
2021/05/29 11:02:02;;;;;;;2.70;0.97;;;;;;;23.82;27.08;98758.31;5047474;28;20221;-76
2021/05/29 11:04:30;;;;;;;1.27;0.90;;;;;;;22.89;29.86;98757.50;5047281;28;20870;-83
2021/05/29 11:07:25;;;;;;;1.77;1.00;;;;;;;23.93;28.84;98749.13;5053020;28;20183;-86
2021/05/29 11:09:57;;;;;;;2.00;1.00;;;;;;;24.32;28.72;98744.03;5049127;28;20209;-78
2021/05/29 11:15:58;;;;;;;1.93;1.10;;;;;;;24.73;26.27;98756.63;5039687;28;20217;-75
2021/05/29 11:18:25;;;;;;;1.57;1.10;;;;;;;23.66;27.67;98748.44;5036886;28;20202;-80
2021/05/29 11:21:06;;;;;;;2.50;1.90;;;;;;;23.65;30.03;98729.63;5039505;28;20686;-76
2021/05/29 11:23:33;;;;;;;1.20;1.00;;;;;;;25.02;26.62;98747.59;5043602;28;20667;-70
2021/05/29 11:26:00;;;;;;;1.50;1.03;;;;;;;25.85;25.91;98746.78;5037998;28;20213;-68
2021/05/29 11:28:28;;;;;;;2.00;1.00;;;;;;;25.72;25.13;98746.59;5049862;22;20702;-70
2021/05/29 11:30:59;;;;;;;3.70;0.90;;;;;;;23.52;26.85;98751.94;5021602;28;20210;-70
2021/05/29 11:33:26;;;;;;;1.00;0.90;;;;;;;24.09;26.18;98760.88;5026465;28;20260;-69
2021/05/29 11:35:53;;;;;;;0.83;0.80;;;;;;;24.58;25.34;98754.69;5025924;28;20231;-70
2021/05/29 11:38:24;;;;;;;1.40;0.83;;;;;;;25.64;24.82;98750.72;5019731;28;20231;-70
2021/05/29 11:40:54;;;;;;;0.97;0.60;;;;;;;25.71;23.84;98755.91;5009488;28;20570;-71
2021/05/29 11:43:33;;;;;;;0.80;0.70;;;;;;;24.81;24.81;98756.06;5013665;28;20663;-70
2021/05/29 11:46:01;;;;;;;1.00;0.90;;;;;;;24.31;25.74;98756.00;5015341;28;20656;-70
2021/05/29 11:48:30;;;;;;;1.63;0.60;;;;;;;24.44;25.77;98758.22;5013669;28;20227;-70
2021/05/29 11:51:09;;;;;;;0.60;0.60;;;;;;;24.27;25.95;98746.75;5012386;28;20207;-71
2021/05/29 11:53:37;;;;;;;1.47;0.70;;;;;;;24.26;25.44;98750.53;5017609;28;20265;-71